Terminal Aerodrome Forecast
Issued by NWS Bismarck, ND

Home | Current Version | Previous Version | Text Only | Print | Product List | Glossary On
Versions: 1 2 3 4 5 6 7 8 9 10 11 12
000
FTUS43 KBIS 272320
TAFBIS
TAF
KBIS 272320Z 2800/2824 17008KT P6SM FEW250
     FM280300 20003KT P6SM SKC
      TEMPO 2809/2813 2SM BR
     FM282000 27010KT P6SM FEW250=

USA.gov is the U.S. government's official web portal to all federal, state and local government web resources and services.